createdAt,value
2019-03-25T00:01:36.911Z,57.83
2019-03-25T00:04:06.116Z,48.83
2019-03-25T00:06:34.761Z,55.17
2019-03-25T00:09:05.659Z,50.73
2019-03-25T00:11:35.327Z,53.53
2019-03-25T00:14:04.596Z,53.53
2019-03-25T00:16:33.789Z,54.07
2019-03-25T00:19:03.055Z,52.97
2019-03-25T00:21:32.341Z,55.20
2019-03-25T00:24:01.714Z,50.87
2019-03-25T00:26:30.264Z,47.40
2019-03-25T00:28:59.472Z,54.23
2019-03-25T00:31:29.277Z,56.47
2019-03-25T00:33:58.516Z,52.93
2019-03-25T00:36:27.784Z,57.20
2019-03-25T00:38:57.636Z,54.37
2019-03-25T00:41:26.906Z,56.53
2019-03-25T00:43:56.212Z,53.30
2019-03-25T00:46:25.414Z,52.03
2019-03-25T00:48:54.041Z,46.80
2019-03-25T00:51:23.295Z,52.03
2019-03-25T00:53:52.887Z,53.87
2019-03-25T00:56:22.110Z,52.30
2019-03-25T00:58:51.308Z,54.40
2019-03-25T01:01:20.606Z,52.53
2019-03-25T01:03:50.004Z,52.80
2019-03-25T01:06:19.517Z,55.53
2019-03-25T01:08:48.732Z,51.37
2019-03-25T01:11:17.394Z,51.30
2019-03-25T01:13:46.660Z,54.53
2019-03-25T01:16:15.913Z,55.53
2019-03-25T01:18:46.215Z,55.50
2019-03-25T01:21:15.489Z,59.90
2019-03-25T01:23:44.668Z,59.20
2019-03-25T01:26:14.149Z,56.33
2019-03-25T01:28:43.531Z,60.20
2019-03-25T01:31:12.809Z,51.50
2019-03-25T01:33:41.672Z,56.23
2019-03-25T01:36:10.901Z,57.03
2019-03-25T01:38:40.214Z,55.40
2019-03-25T01:41:09.736Z,56.33
2019-03-25T01:43:38.974Z,57.50
2019-03-25T01:46:08.164Z,58.77
2019-03-25T01:48:37.390Z,55.13
2019-03-25T01:51:06.695Z,57.70
2019-03-25T01:53:35.985Z,51.67
2019-03-25T01:56:04.701Z,53.40
2019-03-25T01:58:33.983Z,55.27
2019-03-25T02:01:03.384Z,55.63
2019-03-25T02:03:33.023Z,54.87
2019-03-25T02:06:02.339Z,57.43
2019-03-25T02:08:30.926Z,54.33
2019-03-25T02:11:00.128Z,51.70
2019-03-25T02:13:29.383Z,51.67
2019-03-25T02:15:58.757Z,48.17
2019-03-25T02:18:27.296Z,54.20
2019-03-25T02:20:56.545Z,52.70
2019-03-25T02:23:25.748Z,50.90
2019-03-25T02:25:54.965Z,53.00
2019-03-25T02:28:24.301Z,51.93
2019-03-25T02:30:53.525Z,53.57
2019-03-25T02:33:22.714Z,52.30
2019-03-25T02:35:52.235Z,49.00
2019-03-25T02:38:20.946Z,50.30
2019-03-25T02:40:50.585Z,55.03
2019-03-25T02:43:19.833Z,52.37
2019-03-25T02:45:50.058Z,52.03
2019-03-25T02:48:19.270Z,48.73
2019-03-25T02:50:48.554Z,53.87
2019-03-25T02:53:17.876Z,48.60
2019-03-25T02:55:47.057Z,53.13
2019-03-25T02:58:16.274Z,50.67
2019-03-25T03:00:44.914Z,48.20
2019-03-25T03:03:14.543Z,51.23
2019-03-25T03:05:43.783Z,52.27
2019-03-25T03:08:12.980Z,52.37
2019-03-25T03:10:42.282Z,54.70
2019-03-25T03:13:11.569Z,56.07
2019-03-25T03:15:41.197Z,54.27
2019-03-25T03:18:10.476Z,56.00
2019-03-25T03:20:39.974Z,51.60
2019-03-25T03:23:08.573Z,53.73
2019-03-25T03:25:37.823Z,56.83
2019-03-25T03:28:07.040Z,55.00
2019-03-25T03:30:36.331Z,57.43
2019-03-25T03:33:06.043Z,54.47
2019-03-25T03:35:35.349Z,56.90
2019-03-25T03:38:05.574Z,56.07
2019-03-25T03:40:34.882Z,54.40
2019-03-25T03:43:04.177Z,49.57
2019-03-25T03:45:32.740Z,56.40
2019-03-25T03:48:01.949Z,56.33
2019-03-25T03:50:31.144Z,61.83
2019-03-25T03:53:00.438Z,60.27
2019-03-25T03:55:29.765Z,62.63
2019-03-25T03:57:59.504Z,58.07
2019-03-25T04:00:30.489Z,58.07
2019-03-25T04:03:00.191Z,59.53
2019-03-25T04:05:29.400Z,53.50
2019-03-25T04:07:57.987Z,57.93
2019-03-25T04:10:27.438Z,59.83
2019-03-25T04:12:57.005Z,60.77
2019-03-25T04:15:28.023Z,55.50
2019-03-25T04:17:57.899Z,58.97
2019-03-25T04:20:27.162Z,58.13
2019-03-25T04:22:56.465Z,59.07
2019-03-25T04:25:25.737Z,57.77
2019-03-25T04:27:55.516Z,51.80
2019-03-25T04:30:24.156Z,56.70
2019-03-25T04:32:53.412Z,59.00
2019-03-25T04:35:22.649Z,59.53
2019-03-25T04:37:52.116Z,60.10
2019-03-25T04:40:21.454Z,57.77
2019-03-25T04:42:50.661Z,56.37
2019-03-25T04:45:19.876Z,68.50
2019-03-25T04:47:49.137Z,57.80
2019-03-25T04:50:18.081Z,50.40
2019-03-25T04:52:47.362Z,56.57
2019-03-25T04:55:16.666Z,56.27
2019-03-25T04:57:46.973Z,57.47
2019-03-25T05:00:17.913Z,55.77
2019-03-25T05:02:48.238Z,57.77
2019-03-25T05:05:17.436Z,56.87
2019-03-25T05:07:47.113Z,57.70
2019-03-25T05:10:16.320Z,54.37
2019-03-25T05:12:44.882Z,51.80
2019-03-25T05:15:14.096Z,53.10
2019-03-25T05:17:43.279Z,49.30
2019-03-25T05:20:12.497Z,47.63
2019-03-25T05:22:42.008Z,45.07
2019-03-25T05:25:11.606Z,45.17
2019-03-25T05:27:40.959Z,44.27
2019-03-25T05:30:10.558Z,47.50
2019-03-25T05:32:39.823Z,42.97
2019-03-25T05:35:08.418Z,40.77
2019-03-25T05:37:38.002Z,44.60
2019-03-25T05:40:07.665Z,43.53
2019-03-25T05:42:36.914Z,42.87
2019-03-25T05:45:07.164Z,45.13
2019-03-25T05:47:36.837Z,42.50
2019-03-25T05:50:09.077Z,44.43
2019-03-25T05:52:38.013Z,40.40
2019-03-25T05:55:07.668Z,37.97
2019-03-25T05:57:36.288Z,40.80
2019-03-25T06:00:05.813Z,41.70
2019-03-25T06:02:35.005Z,39.73
2019-03-25T06:05:04.309Z,42.97
2019-03-25T06:07:33.929Z,42.70
2019-03-25T06:10:03.234Z,41.10
2019-03-25T06:12:32.841Z,44.03
2019-03-25T06:15:02.044Z,40.90
2019-03-25T06:17:31.229Z,36.50
2019-03-25T06:19:59.780Z,36.17
2019-03-25T06:22:29.105Z,41.33
2019-03-25T06:24:58.299Z,39.20
2019-03-25T06:27:27.502Z,39.97
2019-03-25T06:29:56.848Z,40.87
2019-03-25T06:32:26.061Z,40.30
2019-03-25T06:34:55.285Z,40.03
2019-03-25T06:37:24.589Z,40.97
2019-03-25T06:39:54.116Z,35.10
2019-03-25T06:42:22.761Z,43.07
2019-03-25T06:44:51.981Z,40.20
2019-03-25T06:47:21.316Z,38.10
2019-03-25T06:49:50.589Z,39.27
2019-03-25T06:52:19.889Z,40.00
2019-03-25T06:54:49.173Z,40.27
2019-03-25T06:57:25.446Z,39.80
2019-03-25T06:59:49.500Z,39.30
2019-03-25T07:02:18.738Z,36.67
2019-03-25T07:04:47.292Z,40.50
2019-03-25T07:07:16.495Z,38.60
2019-03-25T07:09:45.683Z,40.40
2019-03-25T07:12:14.985Z,41.47
2019-03-25T07:14:44.205Z,39.90
2019-03-25T07:17:13.505Z,41.30
2019-03-25T07:19:42.696Z,41.87
2019-03-25T07:22:12.333Z,39.47
2019-03-25T07:24:40.970Z,36.57
2019-03-25T07:27:10.290Z,39.43
2019-03-25T07:29:39.593Z,42.63
2019-03-25T07:32:09.096Z,41.07
2019-03-25T07:34:38.474Z,37.50
2019-03-25T07:37:07.710Z,36.93
2019-03-25T07:39:37.629Z,39.73
2019-03-25T07:42:07.224Z,40.57
2019-03-25T07:44:36.415Z,37.30
2019-03-25T07:47:04.986Z,35.90
2019-03-25T07:49:34.288Z,38.00
2019-03-25T07:52:03.903Z,40.60
2019-03-25T07:54:33.189Z,40.10
2019-03-25T07:57:02.729Z,42.47
2019-03-25T07:59:32.116Z,41.17
2019-03-25T08:02:01.328Z,42.20
2019-03-25T08:04:29.910Z,41.60
2019-03-25T08:06:59.202Z,35.97
2019-03-25T08:09:28.768Z,39.40
2019-03-25T08:11:58.025Z,38.73
2019-03-25T08:14:27.241Z,39.47
2019-03-25T08:16:57.856Z,37.83
2019-03-25T08:19:27.453Z,40.77
2019-03-25T08:21:56.666Z,40.20
2019-03-25T08:24:25.911Z,38.47
2019-03-25T08:26:55.387Z,39.43
2019-03-25T08:29:24.617Z,35.60
2019-03-25T08:31:53.260Z,38.13
2019-03-25T08:34:22.465Z,40.20
2019-03-25T08:36:51.728Z,36.80
2019-03-25T08:39:21.007Z,38.10
2019-03-25T08:41:50.329Z,38.50
2019-03-25T08:44:19.625Z,37.67
2019-03-25T08:46:48.934Z,39.27
2019-03-25T08:49:18.150Z,38.67
2019-03-25T08:51:47.438Z,33.50
2019-03-25T08:54:16.081Z,38.37
2019-03-25T08:56:45.413Z,38.67
2019-03-25T08:59:14.704Z,39.23
2019-03-25T09:01:43.939Z,37.53
2019-03-25T09:04:13.180Z,40.47
2019-03-25T09:06:42.508Z,38.63
2019-03-25T09:09:11.808Z,41.10
2019-03-25T09:11:41.437Z,38.30
2019-03-25T09:14:10.105Z,33.77
2019-03-25T09:16:39.338Z,39.73
2019-03-25T09:19:08.876Z,41.00
2019-03-25T09:21:38.447Z,40.03
2019-03-25T09:24:07.672Z,38.60
2019-03-25T09:26:36.899Z,40.67
2019-03-25T09:29:06.242Z,39.30
2019-03-25T09:31:36.963Z,37.20
2019-03-25T09:34:06.569Z,30.47
2019-03-25T09:36:35.201Z,31.50
2019-03-25T09:39:06.423Z,31.70
2019-03-25T09:41:35.713Z,29.63
2019-03-25T09:44:05.005Z,29.77
2019-03-25T09:46:34.204Z,29.40
2019-03-25T09:49:03.449Z,28.43
2019-03-25T09:51:32.764Z,29.60
2019-03-25T09:54:02.032Z,27.60
2019-03-25T09:56:31.285Z,25.53
2019-03-25T09:58:59.827Z,28.80
2019-03-25T10:01:30.051Z,29.83
2019-03-25T10:03:59.370Z,26.50
2019-03-25T10:06:28.900Z,25.20
2019-03-25T10:08:58.162Z,24.03
2019-03-25T10:11:27.397Z,23.87
2019-03-25T10:13:56.653Z,30.37
2019-03-25T10:16:25.946Z,30.27
2019-03-25T10:18:54.549Z,19.97
2019-03-25T10:21:23.150Z,22.93
2019-03-25T10:23:52.526Z,23.30
2019-03-25T10:26:22.162Z,25.20
2019-03-25T10:28:51.524Z,24.10
2019-03-25T10:31:20.722Z,24.00
2019-03-25T10:33:49.956Z,23.07
2019-03-25T10:36:19.574Z,22.53
2019-03-25T10:38:48.857Z,17.93
2019-03-25T10:41:17.494Z,16.40
2019-03-25T10:43:46.733Z,21.67
2019-03-25T10:46:16.073Z,17.70
2019-03-25T10:48:45.421Z,17.93
2019-03-25T10:51:14.710Z,15.67
2019-03-25T10:53:43.943Z,17.33
2019-03-25T10:56:13.253Z,14.90
2019-03-25T10:58:42.500Z,19.10
2019-03-25T11:01:11.681Z,15.17
2019-03-25T11:03:40.524Z,14.13
2019-03-25T11:06:09.815Z,19.60
2019-03-25T11:08:39.126Z,14.07
2019-03-25T11:11:08.330Z,14.63
2019-03-25T11:13:37.584Z,10.60
2019-03-25T11:16:06.785Z,9.57
2019-03-25T11:18:35.997Z,10.30
2019-03-25T11:21:05.322Z,8.97
2019-03-25T11:23:34.893Z,7.57
2019-03-25T11:26:03.515Z,8.67
2019-03-25T11:28:32.830Z,8.67
2019-03-25T11:31:02.082Z,7.63
2019-03-25T11:33:31.333Z,9.50
2019-03-25T11:36:02.691Z,8.20
2019-03-25T11:38:33.113Z,8.33
2019-03-25T11:41:02.699Z,9.70
2019-03-25T11:43:31.999Z,12.23
2019-03-25T11:46:01.300Z,11.50
2019-03-25T11:48:29.885Z,24.83
2019-03-25T11:50:59.147Z,14.57
2019-03-25T11:53:28.784Z,18.60
2019-03-25T11:55:59.073Z,27.13
2019-03-25T11:58:28.301Z,32.10
2019-03-25T12:00:57.653Z,40.53
2019-03-25T12:03:26.902Z,12.43
2019-03-25T12:05:56.215Z,66.70
2019-03-25T12:08:25.484Z,30.10
2019-03-25T12:10:54.074Z,21.30
2019-03-25T12:13:23.269Z,24.30
2019-03-25T12:15:52.482Z,8.40
2019-03-25T12:18:21.782Z,15.90
2019-03-25T12:20:51.044Z,42.20
2019-03-25T12:23:26.367Z,8.50
2019-03-25T12:25:51.191Z,11.93
2019-03-25T12:28:20.855Z,22.53
2019-03-25T12:30:50.473Z,12.70
2019-03-25T12:33:19.035Z,9.60
2019-03-25T12:35:48.241Z,6.40
2019-03-25T12:38:17.501Z,21.73
2019-03-25T12:40:46.772Z,8.70
2019-03-25T12:43:16.045Z,13.27
2019-03-25T12:45:45.318Z,16.20
2019-03-25T12:48:14.521Z,9.67
2019-03-25T12:50:44.101Z,5.10
2019-03-25T12:53:13.390Z,7.27
2019-03-25T12:55:42.121Z,8.60
2019-03-25T12:58:11.379Z,8.53
2019-03-25T13:00:44.110Z,7.60
2019-03-25T13:03:13.388Z,3.63
2019-03-25T13:05:43.002Z,3.00
2019-03-25T13:08:12.204Z,4.07
2019-03-25T13:10:41.469Z,2.80
2019-03-25T13:13:10.907Z,3.20
2019-03-25T13:15:39.763Z,2.97
2019-03-25T13:18:08.319Z,2.90
2019-03-25T13:20:37.875Z,2.10
2019-03-25T13:23:07.133Z,2.63
2019-03-25T13:25:36.325Z,3.00
2019-03-25T13:28:05.581Z,2.37
2019-03-25T13:30:34.843Z,2.00
2019-03-25T13:33:04.062Z,1.83
2019-03-25T13:35:33.357Z,1.60
2019-03-25T13:38:01.929Z,2.03
2019-03-25T13:40:31.577Z,1.70
2019-03-25T13:43:00.845Z,1.97
2019-03-25T13:45:30.443Z,1.77
2019-03-25T13:47:59.760Z,2.20
2019-03-25T13:50:29.360Z,1.80
2019-03-25T13:52:58.638Z,2.23
2019-03-25T13:55:28.542Z,2.00
2019-03-25T13:57:58.462Z,1.97
2019-03-25T14:00:36.828Z,1.70
2019-03-25T14:03:06.121Z,2.83
2019-03-25T14:05:35.388Z,2.63
2019-03-25T14:08:04.689Z,2.40
2019-03-25T14:10:34.576Z,2.40
2019-03-25T14:13:03.806Z,2.43
2019-03-25T14:15:33.253Z,2.20
2019-03-25T14:18:02.498Z,2.03
2019-03-25T14:20:31.783Z,2.20
2019-03-25T14:23:00.369Z,2.07
2019-03-25T14:25:29.562Z,2.93
2019-03-25T14:27:59.256Z,2.83
2019-03-25T14:30:28.593Z,2.80
2019-03-25T14:32:57.796Z,3.20
2019-03-25T14:35:27.079Z,2.90
2019-03-25T14:37:56.384Z,2.43
2019-03-25T14:40:25.692Z,2.67
2019-03-25T14:42:55.446Z,2.33
2019-03-25T14:45:26.588Z,3.27
2019-03-25T14:47:55.165Z,2.50
2019-03-25T14:50:24.416Z,2.50
2019-03-25T14:52:53.707Z,3.70
2019-03-25T14:55:23.769Z,4.10
2019-03-25T14:57:53.051Z,2.87
2019-03-25T15:00:25.514Z,2.40
2019-03-25T15:02:53.413Z,2.40
2019-03-25T15:05:23.508Z,3.20
2019-03-25T15:07:52.084Z,2.80
2019-03-25T15:10:21.390Z,2.30
2019-03-25T15:12:50.601Z,3.03
2019-03-25T15:15:19.879Z,2.90
2019-03-25T15:17:49.173Z,3.30
2019-03-25T15:20:18.488Z,2.57
2019-03-25T15:22:47.673Z,2.33
2019-03-25T15:25:16.873Z,2.53
2019-03-25T15:27:46.195Z,3.03
2019-03-25T15:30:14.925Z,3.63
2019-03-25T15:32:44.273Z,3.53
2019-03-25T15:35:13.494Z,3.40
2019-03-25T15:37:42.765Z,3.03
2019-03-25T15:40:12.130Z,3.57
2019-03-25T15:42:41.506Z,4.00
2019-03-25T15:45:10.760Z,3.53
2019-03-25T15:47:40.471Z,3.87
2019-03-25T15:50:09.933Z,2.80
2019-03-25T15:52:38.672Z,2.60
2019-03-25T15:55:07.992Z,2.80
2019-03-25T15:57:39.563Z,3.37
2019-03-25T16:00:12.196Z,2.80
2019-03-25T16:02:41.448Z,2.73
2019-03-25T16:05:10.708Z,9.03
2019-03-25T16:07:40.003Z,3.00
2019-03-25T16:10:09.619Z,4.20
2019-03-25T16:12:39.033Z,4.53
2019-03-25T16:15:07.712Z,3.10
2019-03-25T16:17:36.959Z,3.00
2019-03-25T16:20:06.743Z,4.63
2019-03-25T16:22:36.046Z,4.13
2019-03-25T16:25:05.275Z,3.93
2019-03-25T16:27:34.576Z,3.80
2019-03-25T16:30:03.939Z,5.47
2019-03-25T16:32:32.523Z,4.97
2019-03-25T16:35:01.849Z,5.20
2019-03-25T16:37:31.104Z,3.43
2019-03-25T16:40:00.380Z,2.57
2019-03-25T16:42:29.681Z,2.90
2019-03-25T16:44:58.969Z,4.93
2019-03-25T16:47:28.214Z,4.07
2019-03-25T16:49:57.502Z,4.10
2019-03-25T16:52:26.767Z,2.40
2019-03-25T16:54:55.349Z,2.87
2019-03-25T16:57:24.789Z,4.03
2019-03-25T16:59:54.123Z,4.30
2019-03-25T17:02:23.543Z,4.13
2019-03-25T17:04:52.780Z,4.00
2019-03-25T17:07:22.097Z,3.87
2019-03-25T17:09:51.399Z,8.00
2019-03-25T17:12:21.762Z,14.10
2019-03-25T17:14:51.015Z,28.50
2019-03-25T17:17:19.619Z,33.57
2019-03-25T17:19:48.832Z,35.37
2019-03-25T17:22:18.108Z,19.40
2019-03-25T17:24:47.778Z,6.83
2019-03-25T17:27:16.983Z,5.40
2019-03-25T17:29:46.285Z,25.10
2019-03-25T17:32:15.577Z,8.10
2019-03-25T17:34:44.904Z,6.10
2019-03-25T17:37:14.115Z,3.43
2019-03-25T17:39:42.757Z,3.10
2019-03-25T17:42:12.040Z,3.33
2019-03-25T17:44:41.246Z,3.30
2019-03-25T17:47:10.441Z,2.90
2019-03-25T17:49:39.742Z,2.73
2019-03-25T17:52:08.943Z,1.93
2019-03-25T17:54:38.244Z,2.00
2019-03-25T17:57:07.435Z,1.67
2019-03-25T17:59:36.043Z,1.73
2019-03-25T18:02:05.320Z,2.80
2019-03-25T18:04:34.535Z,1.83
2019-03-25T18:07:03.857Z,2.37
2019-03-25T18:09:33.458Z,3.80
2019-03-25T18:12:02.737Z,1.77
2019-03-25T18:14:31.946Z,2.90
2019-03-25T18:17:01.151Z,4.00
2019-03-25T18:19:30.505Z,2.97
2019-03-25T18:21:59.049Z,1.40
2019-03-25T18:24:28.324Z,6.15
2019-03-25T18:26:57.522Z,8.67
2019-03-25T18:29:26.925Z,24.33
2019-03-25T18:31:56.142Z,26.85
2019-03-25T18:34:25.348Z,9.88
2019-03-25T18:36:54.595Z,4.80
2019-03-25T18:39:23.792Z,2.20
2019-03-25T18:41:53.002Z,1.60
2019-03-25T18:44:21.575Z,4.17
2019-03-25T18:46:51.122Z,3.52
2019-03-25T18:49:20.442Z,6.53
2019-03-25T18:51:49.689Z,1.75
2019-03-25T18:54:19.007Z,1.90
2019-03-25T18:56:48.310Z,2.00
2019-03-25T18:59:17.605Z,2.12
2019-03-25T19:01:54.484Z,1.62
2019-03-25T19:04:18.137Z,1.80
2019-03-25T19:06:46.713Z,2.55
2019-03-25T19:09:15.939Z,3.08
2019-03-25T19:11:45.643Z,13.70
2019-03-25T19:14:14.889Z,2.55
2019-03-25T19:16:44.142Z,4.87
2019-03-25T19:19:13.436Z,2.77
2019-03-25T19:21:42.756Z,2.45
2019-03-25T19:24:12.045Z,3.35
2019-03-25T19:26:40.643Z,2.60
2019-03-25T19:29:09.948Z,2.92
2019-03-25T19:31:39.594Z,2.60
2019-03-25T19:34:08.893Z,2.17
2019-03-25T19:36:38.252Z,2.35
2019-03-25T19:39:07.988Z,2.42
2019-03-25T19:41:37.300Z,2.10
2019-03-25T19:44:06.658Z,2.52
2019-03-25T19:46:35.955Z,2.30
2019-03-25T19:49:04.717Z,2.52
2019-03-25T19:51:34.339Z,2.00
2019-03-25T19:54:03.638Z,1.50
2019-03-25T19:56:32.929Z,2.23
2019-03-25T19:59:02.272Z,2.20
2019-03-25T20:01:31.503Z,2.33
2019-03-25T20:04:00.716Z,2.60
2019-03-25T20:06:30.072Z,2.87
2019-03-25T20:08:58.714Z,7.20
2019-03-25T20:11:27.991Z,5.37
2019-03-25T20:13:57.583Z,6.65
2019-03-25T20:16:26.895Z,10.10
2019-03-25T20:18:56.242Z,8.43
2019-03-25T20:21:25.453Z,3.70
2019-03-25T20:23:54.744Z,2.85
2019-03-25T20:26:24.076Z,3.95
2019-03-25T20:28:53.320Z,9.40
2019-03-25T20:31:21.862Z,8.35
2019-03-25T20:33:51.240Z,7.28
2019-03-25T20:36:20.453Z,9.63
2019-03-25T20:38:49.846Z,5.90
2019-03-25T20:41:19.313Z,4.12
2019-03-25T20:43:48.642Z,4.53
2019-03-25T20:46:17.918Z,4.17
2019-03-25T20:48:47.248Z,6.00
2019-03-25T20:51:16.484Z,3.90
2019-03-25T20:53:45.084Z,4.00
2019-03-25T20:56:14.316Z,4.10
2019-03-25T20:58:43.690Z,3.20
2019-03-25T21:01:12.955Z,3.75
2019-03-25T21:03:42.276Z,3.45
2019-03-25T21:06:11.500Z,3.30
2019-03-25T21:08:41.196Z,3.80
2019-03-25T21:11:10.494Z,4.10
2019-03-25T21:13:39.735Z,3.50
2019-03-25T21:16:08.433Z,3.35
2019-03-25T21:18:37.729Z,4.08
2019-03-25T21:21:07.048Z,3.67
2019-03-25T21:23:36.300Z,3.70
2019-03-25T21:26:05.628Z,3.50
2019-03-25T21:28:34.871Z,11.48
2019-03-25T21:31:04.125Z,16.42
2019-03-25T21:33:33.459Z,8.20
2019-03-25T21:36:02.735Z,7.45
2019-03-25T21:38:31.776Z,12.07
2019-03-25T21:41:01.082Z,4.65
2019-03-25T21:43:30.414Z,3.58
2019-03-25T21:45:59.829Z,2.90
2019-03-25T21:48:29.146Z,3.25
2019-03-25T21:50:58.384Z,3.70
2019-03-25T21:53:27.719Z,3.30
2019-03-25T21:55:57.265Z,2.83
2019-03-25T21:58:26.013Z,3.20
2019-03-25T22:00:55.297Z,3.40
2019-03-25T22:03:24.553Z,3.67
2019-03-25T22:05:53.801Z,4.45
2019-03-25T22:08:23.194Z,3.85
2019-03-25T22:10:52.705Z,3.67
2019-03-25T22:13:22.031Z,3.80
2019-03-25T22:15:51.248Z,4.62
2019-03-25T22:18:20.449Z,7.40
2019-03-25T22:20:49.006Z,4.60
2019-03-25T22:23:18.236Z,4.40
2019-03-25T22:25:47.442Z,3.95
2019-03-25T22:28:16.702Z,3.92
2019-03-25T22:30:46.207Z,3.10
2019-03-25T22:33:25.848Z,3.58
2019-03-25T22:35:47.829Z,3.92
2019-03-25T22:38:17.440Z,3.55
2019-03-25T22:40:47.065Z,4.15
2019-03-25T22:43:15.794Z,3.47
2019-03-25T22:45:45.610Z,3.35
2019-03-25T22:48:14.816Z,3.30
2019-03-25T22:50:44.027Z,3.80
2019-03-25T22:53:13.688Z,3.92
2019-03-25T22:55:42.939Z,3.45
2019-03-25T22:58:12.230Z,3.12
2019-03-25T23:00:44.772Z,3.10
2019-03-25T23:03:14.749Z,3.52
2019-03-25T23:05:43.309Z,3.30
2019-03-25T23:08:12.600Z,3.12
2019-03-25T23:10:41.880Z,3.33
2019-03-25T23:13:11.113Z,3.75
2019-03-25T23:15:40.445Z,3.10
2019-03-25T23:18:09.720Z,3.75
2019-03-25T23:20:39.041Z,3.42
2019-03-25T23:23:08.304Z,4.67
2019-03-25T23:25:37.619Z,3.45
2019-03-25T23:28:06.181Z,3.72
2019-03-25T23:30:35.399Z,3.08
2019-03-25T23:33:04.717Z,4.15
2019-03-25T23:35:33.934Z,4.00
2019-03-25T23:38:03.483Z,3.50
2019-03-25T23:40:32.703Z,2.98
2019-03-25T23:43:01.984Z,2.95
2019-03-25T23:45:31.200Z,3.37
2019-03-25T23:48:00.513Z,3.25
2019-03-25T23:50:29.120Z,3.30
2019-03-25T23:52:58.351Z,4.05
2019-03-25T23:55:27.576Z,3.95
2019-03-25T23:57:56.806Z,3.60
